Huntingtown, MD

9:23 PM EDT on August 22, 2014 (GMT -0400)
N3IDX Live Weather | Change Station
CLOSE
Current Station
Personal Weather Station
Location: Huntingtown, MD
Elevation: 116 ft
Nearby Weather Stations

Elev 116 ft 38.64 °N, 76.62 °W | Updated 6 minutes ago

Mostly Cloudy
Mostly Cloudy
72.4 °F
Feels Like 72.4 °F
N
0.0
Wind Variable Wind from South
Gusts 5.0 mph

Today
High -- | Low -- °F
--% Chance of Precip.
Yesterday
High -- | Low -- °F
Precip. -- in
6:26 AM 7:51 PM
Waning Crescent, 6% visible
Pressure 29.99 in
Visibility 10.0 miles
Clouds Scattered Clouds 2200 ft
Mostly Cloudy 3000 ft
Dew Point 71 °F
Humidity 95%
Rainfall 0.00 in
Snow Depth Not available.
UV 0 out of 12
Pollen 8.60 out of 12
Air Quality Not available.
Flu Activity Not available.
SPECI KADW 230118Z AUTO 10004KT 10SM SCT022 BKN030 22/21 A2999 RMK AO2 $

More Conditions Fewer Conditions

Pressure 29.99 in
Visibility 10.0 miles
Clouds Scattered Clouds 2200 ft
Mostly Cloudy 3000 ft
Dew Point 71 °F
Humidity 95%
Rainfall 0.00 in
Snow Depth Not available.
UV 0 out of 12
Pollen 8.60 out of 12
Air Quality Not available.
Flu Activity Not available.
SPECI KADW 230118Z AUTO 10004KT 10SM SCT022 BKN030 22/21 A2999 RMK AO2 $

More Conditions Fewer Conditions

10-Day Weather Forecast

Almanac

Astronomy

Aug. 22, 2014 Rise Set
Actual Time 6:26 AM EDT 7:51 PM EDT
Civil Twilight 5:58 AM EDT 8:18 PM EDT
Nautical Twilight 5:25 AM EDT 8:52 PM EDT
Astronomical Twilight 4:50 AM EDT 9:27 PM EDT
Moon 3:48 AM EDT (8/22) 5:57 PM EDT (8/22)
Length of Visible Light 14h 19m
Length of Day
13h 24m
Tomorrow will be 2m 18s shorter.
Waning Crescent, 6% of the Moon is Illuminated
Today
Waning Crescent
Aug 25
New
Sep 2
First Quarter
Sep 8
Full
Sep 15
Last Quarter

Today's Extremes

State Highs State Lows

Community

WunderPhotos

Upload Photos

1,746,337 photos uploaded!

WunderBlogs® & News

Nearby

Snow Depth

Station Depth Elevation
No new snow has been reported.

Earthquake Activity

City Distance Mag. Time & Date
No recent earthquake activity has been reported nearby.
Minimum magnitude displayed is 2.5.

Coastal Water Temperatures

Place Temperature
Solomons Island, MD 80.1 °F
Cambridge, MD 79.0 °F

Nearby Weather Stations